Weather observations for the past three days for
Pinedale, Ralph Wenz Field Airport
Imperial (Metric)
Date Time (mdt) Wind (mph) Vis. (mi.) Weather Sky Cond. Temperature (ºF) Relative Humidity Wind Chill (°F) Heat Index (°F) Pressure Precipitation (in)
Air Dwpt 6 hour altimeter (in) sea level (mb) 1 hr 3 hr 6 hr
Max. Min.
09 13:15 NW 15 G 23 10.00 Mostly Cloudy BKN095 57.2 17.6 21% 30.13 0.0
09 12:55 W 21 G 25 10.00 Mostly Cloudy and Breezy BKN085 BKN100 59 15.8 18% 30.13 0.0
09 12:35 W 13 G 18 10.00 Mostly Cloudy BKN085 55.4 17.6 23% 30.13 0.0
09 12:15 W 13 G 23 10.00 Partly Cloudy SCT085 57.2 17.6 21% 30.13 0.0
09 11:55 NW 18 G 25 10.00 Fair CLR 55.4 17.6 23% 30.13 0.0
09 11:35 W 14 G 25 10.00 Fair CLR 55.4 14 19% 30.13 0.0
09 11:15 W 15 G 25 10.00 Fair CLR 55.4 12.2 18% 30.13 0.0
09 10:55 NW 17 G 23 10.00 Fair CLR 55.4 14 19% 30.13 0.0
09 10:35 NW 17 G 26 10.00 Fair CLR 55.4 12.2 18% 30.13 0.0
09 10:15 NW 15 G 23 10.00 Fair CLR 53.6 14 21% 30.12 0.0
09 09:55 W 13 G 18 10.00 Fair CLR 53.6 21.2 28% 30.12 0.0
09 09:35 NW 12 10.00 Fair CLR 51.8 23 32% 30.12 0.0
09 09:15 NW 13 G 20 10.00 Fair CLR 51.8 21.2 30% 30.12 0.0
09 08:55 NW 14 10.00 Fair CLR 50 23 35% 45 30.12 0.0
09 08:35 NW 9 10.00 Fair CLR 46.4 23 40% 42 30.12 0.0
09 08:15 NW 7 10.00 Fair CLR 42.8 23 46% 39 30.13 0.0
09 07:55 NW 9 10.00 Fair CLR 41 21.2 45% 36 30.13 0.0
09 07:35 NW 7 10.00 Fair CLR 37.4 23 56% 33 30.11 0.0
09 07:15 NW 7 10.00 Fair CLR 33.8 23 65% 28 30.11 0.0
09 06:55 NW 5 10.00 Fair CLR 30.2 21.2 69% 26 30.1 0.0
09 06:35 NW 5 10.00 Fair CLR 30.2 21.2 69% 26 30.09 0.0
09 06:15 W 9 10.00 Fair CLR 30.2 21.2 69% 23 30.09 0.0
09 05:55 NW 7 10.00 Fair CLR 30.2 21.2 69% 24 30.08 0.0
09 05:35 NW 3 10.00 Fair CLR 32 23 69% 30.08 0.0
09 05:15 N 7 10.00 Fair CLR 30.2 24.8 80% 24 30.07 0.0
09 04:55 W 6 10.00 Fair CLR 30.2 26.6 86% 25 30.07 0.0
09 04:35 W 6 10.00 Fair CLR 32 26.6 80% 27 30.07 0.0
09 04:15 W 6 10.00 Fair CLR 32 26.6 80% 27 30.07 0.0
09 03:55 NW 5 10.00 Fair CLR 32 28.4 87% 28 30.06 0.0
09 03:35 Calm 10.00 Fair CLR 33.8 28.4 81% 30.06 0.0
09 03:15 Calm 10.00 Fair CLR 35.6 26.6 70% 30.06 0.0
09 02:55 Calm 10.00 Fair CLR 37.4 30.2 75% 30.05 0.0
09 02:35 N 5 10.00 Fair CLR 35.6 30.2 81% 32 30.06 0.0
09 02:15 W 3 10.00 Fair CLR 35.6 30.2 81% 30.06 0.0
09 01:55 Calm 10.00 Fair CLR 37.4 30.2 75% 30.06 0.0
09 01:35 Calm 10.00 Fair CLR 37.4 30.2 75% 30.07 0.0
09 01:15 N 5 10.00 Fair CLR 37.4 30.2 75% 34 30.07 0.0
09 00:55 NW 5 10.00 Fair CLR 39.2 30.2 70% 36 30.08 0.0
09 00:35 NW 3 10.00 Fair CLR 41 30.2 66% 30.07 0.0
09 00:15 NW 3 10.00 Fair CLR 42.8 30.2 61% 30.07 0.0
08 23:55 W 3 10.00 Fair CLR 44.6 30.2 57% 30.07 0.0
08 23:35 W 5 10.00 Fair CLR 44.6 30.2 57% 43 30.07 0.0
08 23:15 W 5 10.00 Fair CLR 42.8 30.2 61% 41 30.07 0.0
08 22:55 SW 3 10.00 Fair CLR 44.6 30.2 57% 30.08 0.0
08 22:35 NW 7 10.00 Fair CLR 44.6 28.4 53% 41 30.08 0.0
08 22:15 NW 7 10.00 Fair CLR 46.4 28.4 50% 43 30.07 0.0
08 21:55 W 8 10.00 Fair CLR 50 26.6 40% 47 30.07 0.0
08 21:35 NW 8 10.00 Fair CLR 51.8 24.8 35% 30.06 0.0
08 21:15 NW 9 10.00 Fair CLR 51.8 26.6 38% 30.06 0.0
08 20:55 NW 8 10.00 Fair CLR 53.6 24.8 33% 30.05 0.0
08 20:35 NW 13 10.00 Fair CLR 55.4 24.8 31% 30.05 0.0
08 20:15 W 14 G 18 10.00 Partly Cloudy SCT085 55.4 26.6 33% 30.04 0.0
08 19:55 W 14 G 20 10.00 Partly Cloudy SCT085 59 28.4 31% 30.03 0.0
08 19:35 W 14 G 21 10.00 Mostly Cloudy BKN085 59 26.6 29% 30.03 0.0
08 19:15 W 13 10.00 Partly Cloudy SCT085 60.8 24.8 25% 30.03 0.0
08 18:55 W 15 G 22 10.00 Partly Cloudy SCT085 60.8 24.8 25% 30.02 0.0
08 18:35 NW 17 G 24 10.00 Mostly Cloudy BKN085 60.8 26.6 27% 30.03 0.0
08 18:15 W 15 G 20 10.00 Mostly Cloudy BKN095 60.8 24.8 25% 30.02 0.0
08 17:55 W 17 G 22 10.00 Mostly Cloudy BKN095 60.8 24.8 25% 30.02 0.0
08 17:35 W 16 G 23 10.00 Mostly Cloudy BKN085 62.6 24.8 24% 30.02 0.0
08 16:55 W 15 G 22 10.00 Partly Cloudy SCT085 64.4 23 21% 30.02 0.0
08 16:35 NW 13 G 22 10.00 Fair CLR 62.6 23 22% 30.03 0.0
08 16:15 W 14 G 23 10.00 Fair CLR 64.4 21.2 19% 30.03 0.0
08 15:55 NW 14 G 25 10.00 Fair CLR 64.4 19.4 18% 30.03 0.0
08 15:35 W 16 G 21 10.00 Partly Cloudy SCT085 64.4 19.4 18% 30.03 0.0
08 15:15 NW 21 G 30 10.00 Partly Cloudy and Breezy SCT085 62.6 23 22% 30.03 0.0
08 14:55 W 14 G 22 10.00 Partly Cloudy SCT085 62.6 23 22% 30.05 0.0
08 14:35 W 7 G 23 10.00 Partly Cloudy SCT075 62.6 23 22% 30.05 0.0
08 14:15 W 10 G 22 10.00 Partly Cloudy SCT075 62.6 26.6 25% 30.05 0.0
08 13:35 NW 13 G 18 10.00 Partly Cloudy SCT075 62.6 26.6 25% 30.07 0.0
08 13:15 N 8 10.00 Partly Cloudy SCT075 60.8 26.6 27% 30.08 0.0
08 12:55 W 5 G 22 10.00 Mostly Cloudy BKN070 59 28.4 31% 30.09 0.0
08 12:35 NW 3 10.00 Partly Cloudy SCT070 59 28.4 31% 30.09 0.0
08 12:15 NW 5 10.00 Fair CLR 55.4 30.2 38% 30.1 0.0
08 11:35 NW 3 10.00 Fair CLR 53.6 32 44% 30.11 0.0
08 11:15 Calm 10.00 Fair CLR 53.6 32 44% 30.12 0.0
08 10:55 Calm 10.00 Fair CLR 51.8 32 47% 30.13 0.0
08 10:35 Calm 10.00 Fair CLR 51.8 32 47% 30.13 0.0
08 10:15 SW 3 10.00 Fair CLR 50 32 50% 30.13 0.0
08 09:55 S 3 10.00 Fair CLR 48.2 33.8 58% 30.13 0.0
08 09:35 Calm 10.00 Fair CLR 48.2 33.8 58% 30.13 0.0
08 09:15 Calm 10.00 Fair CLR 46.4 33.8 62% 30.14 0.0
08 08:55 E 3 10.00 Fair CLR 46.4 33.8 62% 30.13 0.0
08 08:35 Calm 10.00 Fair CLR 42.8 33.8 71% 30.13 0.0
08 08:15 Calm 10.00 Fair CLR 41 33.8 76% 30.14 0.0
08 07:35 Calm 10.00 Fair CLR 35.6 32 87% 30.13 0.0
08 07:15 Calm 10.00 Fair CLR 33.8 30.2 87% 30.12 0.0
08 06:55 Calm 10.00 Fair CLR 32 30.2 93% 30.11 0.0
08 06:35 NW 3 10.00 Fair CLR 32 30.2 93% 30.11 0.0
08 06:15 W 3 10.00 Fair CLR 30.2 28.4 93% 30.11 0.0
08 05:55 Calm 10.00 Fair CLR 32 28.4 87% 30.11 0.0
08 05:35 Calm 10.00 Fair CLR 32 30.2 93% 30.1 0.0
08 05:15 Calm 10.00 Mostly Cloudy BKN085 32 30.2 93% 30.09 0.0
08 04:55 W 3 10.00 Overcast OVC085 33.8 30.2 87% 30.09 0.0
08 04:35 NW 5 10.00 Overcast OVC085 33.8 30.2 87% 30 30.09 0.0
08 04:15 Calm 10.00 Overcast OVC095 33.8 30.2 87% 30.08 0.0
08 03:55 W 7 10.00 Overcast OVC095 33.8 30.2 87% 28 30.08 0.0
08 03:35 NW 5 10.00 Overcast OVC095 35.6 30.2 81% 32 30.08 0.0
08 03:15 W 6 10.00 Overcast OVC095 33.8 30.2 87% 29 30.07 0.0
08 02:55 W 7 10.00 Overcast OVC095 33.8 30.2 87% 28 30.07 0.0
08 02:35 W 5 10.00 Overcast OVC095 33.8 30.2 87% 30 30.07 0.0
08 02:15 Calm 10.00 Overcast OVC095 35.6 32 87% 30.07 0.0
08 01:55 W 3 10.00 Overcast OVC095 35.6 32 87% 30.07 0.0
08 01:35 NW 3 10.00 Overcast OVC095 35.6 32 87% 30.07 0.0
08 01:15 NW 5 10.00 Overcast OVC085 37.4 32 81% 34 30.08 0.0
08 00:55 W 6 10.00 Overcast OVC085 35.6 30.2 81% 31 30.08 0.0
08 00:35 W 5 10.00 Mostly Cloudy BKN085 35.6 32 87% 32 30.08 0.0
08 00:15 W 6 10.00 Partly Cloudy SCT095 35.6 30.2 81% 31 30.07 0.0
07 23:55 Calm 10.00 Partly Cloudy SCT095 35.6 32 87% 30.07 0.0
07 23:35 Calm 10.00 Partly Cloudy SCT085 37.4 32 81% 30.07 0.0
07 23:15 NW 3 10.00 Mostly Cloudy BKN085 39.2 32 75% 30.07 0.0
07 22:55 NW 5 10.00 Partly Cloudy SCT085 37.4 32 81% 34 30.07 0.0
07 22:35 W 5 10.00 Fair CLR 37.4 32 81% 34 30.07 0.0
07 22:15 Calm 10.00 Partly Cloudy SCT110 39.2 32 75% 30.06 0.0
07 21:55 N 6 10.00 Partly Cloudy SCT100 42.8 32 66% 40 30.06 0.0
07 21:35 W 5 10.00 Fair CLR 42.8 32 66% 41 30.05 0.0
07 21:15 W 6 10.00 Fair CLR 44.6 32 61% 42 30.05 0.0
07 20:55 W 8 10.00 Fair CLR 44.6 32 61% 41 30.04 0.0
07 20:35 NW 6 10.00 Partly Cloudy SCT085 48.2 32 54% 46 30.03 0.0
07 20:15 NW 7 10.00 Partly Cloudy SCT080 SCT085 51.8 30.2 44% 30.03 0.0
07 19:55 NW 13 10.00 Partly Cloudy SCT080 SCT100 53.6 28.4 38% 30.02 0.0
07 19:35 W 22 G 28 10.00 Overcast and Breezy SCT075 OVC090 57.2 23 27% 30.01 0.0
07 19:15 W 15 G 24 10.00 Mostly Cloudy BKN090 59 21.2 23% 30 0.0
07 18:55 W 22 G 28 10.00 Partly Cloudy and Breezy SCT090 59 21.2 23% 30 0.0
07 18:35 W 16 G 25 10.00 Partly Cloudy SCT090 60.8 23 23% 30 0.0
07 18:15 W 17 G 23 10.00 Mostly Cloudy BKN090 60.8 23 23% 30 0.0
07 17:55 N 8 10.00 Mostly Cloudy BKN090 57.2 30.2 36% 30.01 0.0
07 17:35 N 12 10.00 Mostly Cloudy BKN090 57.2 30.2 36% 30.01 0.0
07 17:15 N 12 G 16 10.00 Mostly Cloudy SCT070 BKN080 BKN100 55.4 30.2 38% 30.01 0.0
07 16:55 W 14 G 17 10.00 Overcast BKN070 OVC090 57.2 28.4 33% 30.01 0.0
07 16:35 NW 17 G 24 10.00 Overcast SCT070 BKN080 OVC090 59 30.2 34% 30.01 0.0
07 16:15 NW 14 G 20 10.00 Overcast SCT050 OVC075 57.2 26.6 31% 30.03 0.0
07 15:55 NW 24 G 30 10.00 Overcast and Breezy SCT070 OVC090 53.6 28.4 38% 30.04 0.0
07 15:35 W 25 G 36 10.00 Mostly Cloudy and Breezy BKN080 BKN090 55.4 28.4 36% 30.04 0.0
07 15:15 W 22 G 26 10.00 Partly Cloudy and Breezy SCT080 SCT090 SCT120 60.8 23 23% 30.03 0.0
07 14:55 W 20 G 25 10.00 Partly Cloudy SCT070 SCT080 59 23 25% 30.03 0.0
07 14:35 NW 7 10.00 Mostly Cloudy SCT043 SCT055 BKN070 55.4 30.2 38% 30.03 0.0
07 14:15 NW 16 G 39 10.00 Light Rain SCT046 BKN065 OVC090 53.6 30.2 41% 30.05 0.0
07 13:55 W 18 G 25 10.00 Overcast SCT065 SCT075 OVC095 59 26.6 29% 30.04 0.0
07 13:35 W 13 G 18 10.00 Mostly Cloudy SCT070 BKN075 BKN095 57.2 28.4 33% 30.04 0.0
07 13:15 W 13 G 29 10.00 Partly Cloudy SCT060 SCT095 59 26.6 29% 30.05 0.0
07 12:55 W 16 G 22 10.00 Partly Cloudy SCT060 SCT080 SCT090 59 30.2 34% 30.05 0.0
07 12:35 W 13 G 25 10.00 Partly Cloudy SCT060 SCT070 SCT090 59 30.2 34% 30.05 0.0
07 12:15 W 16 G 24 10.00 Mostly Cloudy BKN060 BKN070 BKN090 55.4 30.2 38% 30.06 0.0
07 11:55 Calm 10.00 Overcast SCT060 BKN070 OVC080 53.6 28.4 38% 30.06 0.0
07 11:35 SW 10 10.00 Overcast SCT060 BKN070 OVC080 53.6 30.2 41% 30.07 0.0
07 11:15 S 3 10.00 Overcast OVC070 51.8 30.2 44% 30.08 0.0
07 10:55 S 5 10.00 Mostly Cloudy BKN065 BKN075 53.6 30.2 41% 30.08 0.0
07 10:35 Calm 10.00 Partly Cloudy SCT070 51.8 30.2 44% 30.09 0.0
07 10:15 Calm 10.00 Fair CLR 50 30.2 47% 30.09 0.0
07 09:55 SW 3 10.00 Fair CLR 50 30.2 47% 30.1 0.0
07 09:35 Calm 10.00 Fair CLR 48.2 30.2 50% 30.11 0.0
07 09:15 Calm 10.00 Fair CLR 46.4 30.2 53% 30.11 0.0
07 08:55 Calm 10.00 Fair CLR 44.6 30.2 57% 30.11 0.0
07 08:35 Calm 10.00 Fair CLR 44.6 30.2 57% 30.11 0.0
07 08:15 Calm 10.00 Fair CLR 42.8 32 66% 30.11 0.0
07 07:55 Calm 10.00 Fair CLR 41 32 70% 30.11 0.0
07 07:35 N 6 10.00 Fair CLR 37.4 30.2 75% 33 30.1 0.0
07 07:15 Calm 10.00 Fair CLR 33.8 32 93% 30.09 0.0
07 06:55 W 3 10.00 Partly Cloudy SCT060 SCT070 32 30.2 93% 30.09 0.0
07 06:35 W 3 10.00 Mostly Cloudy BKN060 32 30.2 93% 30.09 0.0
07 06:15 W 6 10.00 Mostly Cloudy BKN060 32 30.2 93% 27 30.09 0.0
07 05:55 NW 7 10.00 Overcast OVC060 32 32 100% 26 30.09 0.0
07 05:35 NW 5 10.00 Overcast BKN060 OVC070 32 32 100% 28 30.09 0.0
07 05:15 W 6 10.00 Overcast BKN060 OVC070 32 32 100% 27 30.09 0.0
07 04:55 W 5 10.00 Overcast OVC060 32 32 100% 28 30.09 0.0
07 04:35 Calm 10.00 Overcast OVC060 35.6 32 87% 30.09 0.0
07 04:15 NW 5 10.00 Overcast BKN060 OVC075 33.8 32 93% 30 30.09 0.0
07 03:55 W 3 10.00 Overcast OVC075 33.8 32 93% 30.09 0.0
07 03:35 Calm 10.00 Overcast BKN075 OVC085 35.6 32 87% 30.1 0.0
07 03:15 Calm 10.00 Overcast BKN085 OVC100 33.8 32 93% 30.1 0.0
07 02:55 Calm 10.00 Overcast BKN075 OVC100 35.6 30.2 81% 30.1 0.0
07 02:35 Calm 10.00 Overcast OVC080 33.8 30.2 87% 30.11 0.0
07 02:15 Calm 10.00 Overcast OVC080 33.8 32 93% 30.11 0.0
07 01:55 Calm 10.00 Overcast BKN080 OVC100 33.8 30.2 87% 30.11 0.0
07 01:15 Calm 10.00 Partly Cloudy SCT070 SCT100 32 30.2 93% 30.13 0.0
07 00:55 Calm 10.00 Partly Cloudy SCT070 33.8 28.4 81% 30.12 0.0
07 00:35 Calm 10.00 Partly Cloudy SCT070 35.6 30.2 81% 30.11 0.0
07 00:15 Calm 10.00 Mostly Cloudy BKN070 35.6 30.2 81% 30.12 0.0
06 23:55 Calm 10.00 Fair CLR 33.8 28.4 81% 30.12 0.0
06 23:30 W 3 10.00 Fair CLR 35.6 28.4 75% 30.12 0.0
06 23:15 W 5 10.00 Partly Cloudy SCT090 37.4 28.4 70% 34 30.12 0.0
06 22:55 SW 6 10.00 Fair CLR 37.4 28.4 70% 33 30.13 0.0
06 22:35 NW 5 10.00 Partly Cloudy SCT080 39.2 28.4 65% 36 30.12 0.0
06 22:15 W 7 10.00 Mostly Cloudy BKN070 41 28.4 61% 37 30.12 0.0
06 21:55 NW 8 10.00 Mostly Cloudy BKN070 42.8 28.4 57% 39 30.11 0.0
06 21:35 NW 8 10.00 Mostly Cloudy BKN080 42.8 28.4 57% 39 30.11 0.0
06 21:15 W 9 10.00 Overcast OVC080 44.6 26.6 49% 40 30.1 0.0
06 20:55 W 10 10.00 Mostly Cloudy BKN080 44.6 26.6 49% 40 30.09 0.0
06 20:35 W 9 10.00 Fair CLR 44.6 24.8 46% 40 30.09 0.0
06 20:15 NW 13 10.00 Fair CLR 46.4 23 40% 41 30.07 0.0
06 19:55 NW 13 G 17 10.00 Fair CLR 50 21.2 32% 46 30.07 0.0
06 19:35 NW 14 G 25 10.00 Partly Cloudy SCT090 51.8 19.4 28% 30.07 0.0
06 19:15 NW 20 G 25 10.00 Fair CLR 51.8 19.4 28% 30.07 0.0
06 18:55 NW 21 G 25 10.00 Fair and Breezy CLR 53.6 17.6 24% 30.06 0.0
06 18:35 NW 20 G 26 10.00 Fair CLR 53.6 17.6 24% 30.06 0.0
06 18:15 W 17 G 26 10.00 Fair CLR 53.6 15.8 22% 30.06 0.0
06 17:55 NW 17 G 24 10.00 Fair CLR 53.6 12.2 19% 30.06 0.0
06 17:35 NW 18 G 24 10.00 Fair CLR 53.6 14 21% 30.06 0.0
06 17:15 NW 17 G 25 10.00 Fair CLR 53.6 14 21% 30.05 0.0
06 16:55 W 14 G 20 10.00 Fair CLR 53.6 15.8 22% 30.06 0.0
06 16:35 N 13 G 24 10.00 Fair CLR 53.6 12.2 19% 30.06 0.0
06 16:15 W 16 G 22 10.00 Fair CLR 51.8 14 22% 30.07 0.0
06 15:55 W 10 G 24 10.00 Fair CLR 51.8 14 22% 30.08 0.0
06 15:35 W 21 G 25 10.00 Fair and Breezy CLR 51.8 15.8 24% 30.08 0.0
06 15:15 W 16 G 28 10.00 Fair CLR 50 17.6 28% 45 30.08 0.0
06 14:55 SW 9 10.00 Fair CLR 46.4 21.2 37% 42 30.09 0.0
06 14:35 W 6 G 10 10.00 Fair CLR 44.6 21.2 39% 42 30.11 0.0
06 14:15 W 8 10.00 Partly Cloudy SCT048 42.8 21.2 42% 39 30.11 0.0
06 13:55 W 9 10.00 Mostly Cloudy SCT046 BKN050 41 23 49% 36 30.12 0.0
06 13:35 W 8 10.00 Partly Cloudy SCT046 SCT050 41 23 49% 36 30.13 0.0
Date Time (mdt) Wind (mph) Vis. (mi.) Weather Sky Cond. Air Dwpt Max. Min. Relative Humidity Wind Chill (°F) Heat Index (°F) altimeter (in) sea level (mb) 1 hr 3 hr 6 hr
6 hour
Temperature (ºF) Pressure Precipitation (in)